createdAt,value
2022-11-27T00:01:10.913Z,23.80
2022-11-27T00:03:39.660Z,19.98
2022-11-27T00:06:09.074Z,19.20
2022-11-27T00:08:38.797Z,22.10
2022-11-27T00:11:08.512Z,20.90
2022-11-27T00:13:36.776Z,20.15
2022-11-27T00:16:06.346Z,20.17
2022-11-27T00:21:04.995Z,24.05
2022-11-27T00:23:33.839Z,22.42
2022-11-27T00:26:04.140Z,21.50
2022-11-27T00:28:32.752Z,25.40
2022-11-27T00:31:02.125Z,22.63
2022-11-27T00:33:30.508Z,26.33
2022-11-27T00:36:02.367Z,24.02
2022-11-27T00:38:33.528Z,25.55
2022-11-27T00:41:09.013Z,26.00
2022-11-27T00:43:44.225Z,25.52
2022-11-27T00:46:13.774Z,21.42
2022-11-27T00:48:42.154Z,27.65
2022-11-27T00:51:12.076Z,26.77
2022-11-27T00:53:40.176Z,28.83
2022-11-27T00:56:10.349Z,25.00
2022-11-27T00:58:38.411Z,28.83
2022-11-27T01:01:08.407Z,26.02
2022-11-27T01:03:36.867Z,23.95
2022-11-27T01:06:06.172Z,22.48
2022-11-27T01:08:35.272Z,27.65
2022-11-27T01:11:03.786Z,22.92
2022-11-27T01:13:35.468Z,22.33
2022-11-27T01:16:06.269Z,20.85
2022-11-27T01:18:35.026Z,23.75
2022-11-27T01:21:03.397Z,21.57
2022-11-27T01:23:32.096Z,23.55
2022-11-27T01:26:02.126Z,19.00
2022-11-27T01:28:32.144Z,23.73
2022-11-27T01:31:04.711Z,22.83
2022-11-27T01:33:33.251Z,25.23
2022-11-27T01:36:03.552Z,19.05
2022-11-27T01:38:32.288Z,17.33
2022-11-27T01:41:01.232Z,23.30
2022-11-27T01:43:43.040Z,14.27
2022-11-27T01:46:32.288Z,18.60
2022-11-27T01:49:23.708Z,18.85
2022-11-27T01:51:56.699Z,17.60
2022-11-27T01:54:27.576Z,21.10
2022-11-27T01:56:59.383Z,22.60
2022-11-27T01:59:28.940Z,22.27
2022-11-27T02:04:25.392Z,24.67
2022-11-27T02:06:54.840Z,18.75
2022-11-27T02:11:59.393Z,23.15
2022-11-27T02:14:36.332Z,17.70
2022-11-27T02:17:09.597Z,18.95
2022-11-27T02:19:56.600Z,17.52
2022-11-27T02:22:39.563Z,20.58
2022-11-27T02:25:14.600Z,17.75
2022-11-27T02:28:06.609Z,26.15
2022-11-27T02:30:42.545Z,21.23
2022-11-27T02:33:13.108Z,22.52
2022-11-27T02:35:45.567Z,22.15
2022-11-27T02:38:18.504Z,20.10
2022-11-27T02:40:52.171Z,22.00
2022-11-27T02:43:25.475Z,18.65
2022-11-27T02:45:56.683Z,23.33
2022-11-27T02:48:31.182Z,19.67
2022-11-27T02:50:59.410Z,23.83
2022-11-27T02:53:33.201Z,18.35
2022-11-27T02:56:03.329Z,18.38
2022-11-27T02:58:32.053Z,19.17
2022-11-27T03:01:03.236Z,17.50
2022-11-27T03:03:35.266Z,19.95
2022-11-27T03:06:08.682Z,22.52
2022-11-27T03:08:41.999Z,19.73
2022-11-27T03:11:12.119Z,18.45
2022-11-27T03:13:42.944Z,17.75
2022-11-27T03:16:18.663Z,16.35
2022-11-27T03:18:56.623Z,15.75
2022-11-27T03:21:31.699Z,15.70
2022-11-27T03:24:00.123Z,15.95
2022-11-27T03:26:28.363Z,24.38
2022-11-27T03:28:58.205Z,20.35
2022-11-27T03:31:28.178Z,18.65
2022-11-27T03:33:56.682Z,20.08
2022-11-27T03:36:24.959Z,23.65
2022-11-27T03:38:56.549Z,22.95
2022-11-27T03:41:32.532Z,21.15
2022-11-27T03:44:09.464Z,19.33
2022-11-27T03:46:47.509Z,22.90
2022-11-27T03:49:22.638Z,19.27
2022-11-27T03:51:57.595Z,20.60
2022-11-27T03:54:37.661Z,19.70
2022-11-27T03:57:16.214Z,17.17
2022-11-27T03:59:48.242Z,16.15
2022-11-27T04:02:28.462Z,18.33
2022-11-27T04:04:56.637Z,26.67
2022-11-27T04:07:24.867Z,27.70
2022-11-27T04:09:53.048Z,31.90
2022-11-27T04:12:21.105Z,20.90
2022-11-27T04:14:49.141Z,18.10
2022-11-27T04:17:18.590Z,17.70
2022-11-27T04:19:46.692Z,20.00
2022-11-27T04:22:14.919Z,18.30
2022-11-27T04:24:43.166Z,19.58
2022-11-27T04:27:11.295Z,20.40
2022-11-27T04:29:39.350Z,17.65
2022-11-27T04:32:07.661Z,22.40
2022-11-27T04:34:37.121Z,23.67
2022-11-27T04:37:05.195Z,18.13
2022-11-27T04:39:33.329Z,20.02
2022-11-27T04:42:01.590Z,17.25
2022-11-27T04:44:29.680Z,19.38
2022-11-27T04:46:57.920Z,20.17
2022-11-27T04:49:26.071Z,18.60
2022-11-27T04:51:55.476Z,17.80
2022-11-27T04:54:23.705Z,17.80
2022-11-27T04:56:52.024Z,17.80
2022-11-27T04:59:20.184Z,14.80
2022-11-27T05:01:48.324Z,15.90
2022-11-27T05:04:16.420Z,18.55
2022-11-27T05:06:44.652Z,17.15
2022-11-27T05:09:14.627Z,13.88
2022-11-27T05:11:42.851Z,17.20
2022-11-27T05:14:18.200Z,16.23
2022-11-27T05:16:48.786Z,17.60
2022-11-27T05:19:18.336Z,16.08
2022-11-27T05:24:17.581Z,12.93
2022-11-27T05:26:46.340Z,16.25
2022-11-27T05:29:15.087Z,16.58
2022-11-27T05:31:43.674Z,9.75
2022-11-27T05:34:12.542Z,13.30
2022-11-27T05:36:40.915Z,15.65
2022-11-27T05:39:09.881Z,12.65
2022-11-27T05:41:41.696Z,17.00
2022-11-27T05:44:12.518Z,24.67
2022-11-27T05:46:40.897Z,24.30
2022-11-27T05:49:08.981Z,20.98
2022-11-27T05:51:37.374Z,17.35
2022-11-27T05:54:05.764Z,18.48
2022-11-27T05:56:34.299Z,17.00
2022-11-27T05:59:03.819Z,17.63
2022-11-27T06:04:00.363Z,32.25
2022-11-27T06:06:28.428Z,25.42
2022-11-27T06:08:56.515Z,25.00
2022-11-27T06:11:24.884Z,25.30
2022-11-27T06:13:53.013Z,26.17
2022-11-27T06:16:24.846Z,23.98
2022-11-27T06:18:54.514Z,22.58
2022-11-27T06:21:24.509Z,26.05
2022-11-27T06:23:55.502Z,23.75
2022-11-27T06:26:26.248Z,23.33
2022-11-27T06:28:57.383Z,20.75
2022-11-27T06:31:29.103Z,21.52
2022-11-27T06:33:57.864Z,30.92
2022-11-27T06:36:29.230Z,36.85
2022-11-27T06:38:57.491Z,33.45
2022-11-27T06:41:27.097Z,23.02
2022-11-27T06:43:55.404Z,19.98
2022-11-27T06:46:24.708Z,20.80
2022-11-27T06:48:55.294Z,21.17
2022-11-27T06:51:25.178Z,19.15
2022-11-27T06:53:54.396Z,18.70
2022-11-27T06:56:27.043Z,17.10
2022-11-27T06:58:57.112Z,19.08
2022-11-27T07:01:26.912Z,14.15
2022-11-27T07:03:57.119Z,14.63
2022-11-27T07:06:27.307Z,17.50
2022-11-27T07:08:55.871Z,15.77
2022-11-27T07:11:26.369Z,14.70
2022-11-27T07:13:58.222Z,14.90
2022-11-27T07:16:27.300Z,17.52
2022-11-27T07:18:59.245Z,15.75
2022-11-27T07:21:27.605Z,12.70
2022-11-27T07:23:56.526Z,13.38
2022-11-27T07:26:26.923Z,14.00
2022-11-27T07:28:55.536Z,17.15
2022-11-27T07:31:26.541Z,17.17
2022-11-27T07:33:56.621Z,19.77
2022-11-27T07:36:26.579Z,21.98
2022-11-27T07:38:55.412Z,18.27
2022-11-27T07:41:23.684Z,25.20
2022-11-27T07:43:51.770Z,22.70
2022-11-27T07:46:22.289Z,21.70
2022-11-27T07:48:51.642Z,21.70
2022-11-27T07:51:40.220Z,18.33
2022-11-27T07:54:28.541Z,20.60
2022-11-27T07:57:16.902Z,22.80
2022-11-27T07:59:47.539Z,20.10
2022-11-27T08:02:16.430Z,24.27
2022-11-27T08:04:45.296Z,15.55
2022-11-27T08:07:16.327Z,18.15
2022-11-27T08:09:44.786Z,21.65
2022-11-27T08:12:12.937Z,30.90
2022-11-27T08:14:41.392Z,27.10
2022-11-27T08:17:13.334Z,25.10
2022-11-27T08:19:41.395Z,28.15
2022-11-27T08:22:13.161Z,34.70
2022-11-27T08:24:43.197Z,24.13
2022-11-27T08:27:11.721Z,21.80
2022-11-27T08:29:40.159Z,20.73
2022-11-27T08:32:08.595Z,20.52
2022-11-27T08:34:37.032Z,30.33
2022-11-27T08:37:05.708Z,26.92
2022-11-27T08:39:34.042Z,29.38
2022-11-27T08:42:03.451Z,33.13
2022-11-27T08:44:31.489Z,32.50
2022-11-27T08:46:59.563Z,31.05
2022-11-27T08:49:27.638Z,33.80
2022-11-27T08:51:55.728Z,30.20
2022-11-27T08:54:23.768Z,30.00
2022-11-27T08:56:53.018Z,35.28
2022-11-27T08:59:22.550Z,30.00
2022-11-27T09:04:18.698Z,33.92
2022-11-27T09:06:48.644Z,32.30
2022-11-27T09:09:17.053Z,33.15
2022-11-27T09:11:45.543Z,27.15
2022-11-27T09:14:13.626Z,26.75
2022-11-27T09:16:43.279Z,27.00
2022-11-27T09:19:11.416Z,26.30
2022-11-27T09:21:39.767Z,23.13
2022-11-27T09:24:08.880Z,28.23
2022-11-27T09:26:37.162Z,31.80
2022-11-27T09:29:05.212Z,28.48
2022-11-27T09:31:33.336Z,35.53
2022-11-27T09:34:04.742Z,24.90
2022-11-27T09:36:33.149Z,21.13
2022-11-27T09:39:03.475Z,15.23
2022-11-27T09:41:40.765Z,22.65
2022-11-27T09:44:23.827Z,19.90
2022-11-27T09:46:54.280Z,27.35
2022-11-27T09:49:29.035Z,27.42
2022-11-27T09:52:03.363Z,22.02
2022-11-27T09:54:37.173Z,24.85
2022-11-27T09:57:07.400Z,22.60
2022-11-27T09:59:44.409Z,24.92
2022-11-27T10:02:18.625Z,17.23
2022-11-27T10:05:12.906Z,17.40
2022-11-27T10:07:47.541Z,15.82
2022-11-27T10:10:30.943Z,17.45
2022-11-27T10:13:04.734Z,17.23
2022-11-27T10:15:41.680Z,14.55
2022-11-27T10:18:15.831Z,13.63
2022-11-27T10:20:49.841Z,10.88
2022-11-27T10:23:28.561Z,9.10
2022-11-27T10:26:03.008Z,10.50
2022-11-27T10:28:37.747Z,9.45
2022-11-27T10:31:12.891Z,7.55
2022-11-27T10:33:46.275Z,6.30
2022-11-27T10:36:21.877Z,4.80
2022-11-27T10:38:50.580Z,5.05
2022-11-27T10:44:27.447Z,4.55
2022-11-27T10:47:02.459Z,2.80
2022-11-27T10:49:30.700Z,5.75
2022-11-27T10:52:00.732Z,4.53
2022-11-27T10:54:32.416Z,4.68
2022-11-27T10:57:13.017Z,6.18
2022-11-27T10:59:46.036Z,3.90
2022-11-27T11:02:31.025Z,4.63
2022-11-27T11:05:30.746Z,4.90
2022-11-27T11:07:57.338Z,2.90
2022-11-27T11:10:34.174Z,6.20
2022-11-27T11:13:17.395Z,4.57
2022-11-27T11:15:53.416Z,4.18
2022-11-27T11:18:23.401Z,6.78
2022-11-27T11:20:54.609Z,4.53
2022-11-27T11:23:28.866Z,5.78
2022-11-27T11:26:00.890Z,2.83
2022-11-27T11:28:29.632Z,5.35
2022-11-27T11:31:02.776Z,7.35
2022-11-27T11:33:31.620Z,4.10
2022-11-27T11:36:09.553Z,5.45
2022-11-27T11:38:39.429Z,4.95
2022-11-27T11:41:09.547Z,6.20
2022-11-27T11:43:39.490Z,5.25
2022-11-27T11:46:20.678Z,5.03
2022-11-27T11:49:01.325Z,4.78
2022-11-27T11:51:58.533Z,5.30
2022-11-27T11:54:52.049Z,11.70
2022-11-27T11:57:46.393Z,6.55
2022-11-27T12:00:17.345Z,4.40
2022-11-27T12:03:01.366Z,6.68
2022-11-27T12:05:38.390Z,5.65
2022-11-27T12:08:22.439Z,5.57
2022-11-27T12:10:59.905Z,5.25
2022-11-27T12:13:43.299Z,4.65
2022-11-27T12:16:22.392Z,5.82
2022-11-27T12:19:05.371Z,5.63
2022-11-27T12:21:42.933Z,5.95
2022-11-27T12:24:28.084Z,8.35
2022-11-27T12:27:07.576Z,6.63
2022-11-27T12:29:50.296Z,4.45
2022-11-27T12:32:34.843Z,3.63
2022-11-27T12:35:29.821Z,4.43
2022-11-27T12:38:13.186Z,4.53
2022-11-27T12:40:57.488Z,5.57
2022-11-27T12:43:28.165Z,3.70
2022-11-27T12:46:01.599Z,3.58
2022-11-27T12:48:36.557Z,6.03
2022-11-27T12:51:10.805Z,6.32
2022-11-27T12:53:45.256Z,5.00
2022-11-27T12:56:20.924Z,3.35
2022-11-27T12:58:55.937Z,6.75
2022-11-27T13:01:29.804Z,5.78
2022-11-27T13:04:11.557Z,3.70
2022-11-27T13:06:53.856Z,7.45
2022-11-27T13:09:32.492Z,3.75
2022-11-27T13:12:02.805Z,4.88
2022-11-27T13:14:37.830Z,6.78
2022-11-27T13:17:11.771Z,6.40
2022-11-27T13:19:46.056Z,2.80
2022-11-27T13:22:28.620Z,4.70
2022-11-27T13:24:57.397Z,7.22
2022-11-27T13:27:28.743Z,6.60
2022-11-27T13:30:02.527Z,4.75
2022-11-27T13:32:34.313Z,5.85
2022-11-27T13:35:06.927Z,4.57
2022-11-27T13:37:38.104Z,6.57
2022-11-27T13:40:08.980Z,3.80
2022-11-27T13:42:43.276Z,5.95
2022-11-27T13:45:22.979Z,5.35
2022-11-27T13:47:52.456Z,5.63
2022-11-27T13:53:00.509Z,5.65
2022-11-27T13:55:31.615Z,4.75
2022-11-27T13:58:02.622Z,6.05
2022-11-27T14:00:36.417Z,5.60
2022-11-27T14:03:05.818Z,5.55
2022-11-27T14:05:41.050Z,6.97
2022-11-27T14:08:23.111Z,4.78
2022-11-27T14:10:56.948Z,5.25
2022-11-27T14:13:39.728Z,5.47
2022-11-27T14:16:26.258Z,7.22
2022-11-27T14:18:57.655Z,5.70
2022-11-27T14:21:31.628Z,4.93
2022-11-27T14:24:05.812Z,5.85
2022-11-27T14:26:34.105Z,5.45
2022-11-27T14:29:02.188Z,5.28
2022-11-27T14:31:35.645Z,6.57
2022-11-27T14:34:15.492Z,5.28
2022-11-27T14:36:44.676Z,4.78
2022-11-27T14:39:23.215Z,4.95
2022-11-27T14:41:58.208Z,5.90
2022-11-27T14:44:27.518Z,5.80
2022-11-27T14:47:03.175Z,6.75
2022-11-27T14:49:34.508Z,6.22
2022-11-27T14:52:10.684Z,7.53
2022-11-27T14:54:41.779Z,6.13
2022-11-27T14:57:23.859Z,7.53
2022-11-27T15:00:15.718Z,4.50
2022-11-27T15:02:52.922Z,5.57
2022-11-27T15:05:36.097Z,3.75
2022-11-27T15:08:24.573Z,8.20
2022-11-27T15:11:35.879Z,5.73
2022-11-27T15:14:26.650Z,5.50
2022-11-27T15:17:23.101Z,7.35
2022-11-27T15:20:16.742Z,5.20
2022-11-27T15:23:05.312Z,4.93
2022-11-27T15:26:14.310Z,3.00
2022-11-27T15:29:05.091Z,5.40
2022-11-27T15:31:54.128Z,9.73
2022-11-27T15:34:42.352Z,14.77
2022-11-27T15:37:34.316Z,17.92
2022-11-27T15:40:29.936Z,15.38
2022-11-27T15:43:18.291Z,13.77
2022-11-27T15:46:08.406Z,11.63
2022-11-27T15:48:57.237Z,11.85
2022-11-27T15:51:41.469Z,8.00
2022-11-27T15:54:11.024Z,9.48
2022-11-27T15:59:07.917Z,14.43
2022-11-27T16:01:36.427Z,12.00
2022-11-27T16:04:04.719Z,11.40
2022-11-27T16:06:34.502Z,7.88
2022-11-27T16:09:02.863Z,12.48
2022-11-27T16:11:33.749Z,13.68
2022-11-27T16:14:01.902Z,8.98
2022-11-27T16:16:30.153Z,11.10
2022-11-27T16:19:00.597Z,11.75
2022-11-27T16:21:30.362Z,12.27
2022-11-27T16:23:59.952Z,10.13
2022-11-27T16:26:29.499Z,11.27
2022-11-27T16:28:59.490Z,11.18
2022-11-27T16:31:46.229Z,13.27
2022-11-27T16:34:32.924Z,13.32
2022-11-27T16:37:01.199Z,12.30
2022-11-27T16:39:34.080Z,12.35
2022-11-27T16:42:02.356Z,14.43
2022-11-27T16:44:31.930Z,13.98
2022-11-27T16:49:28.196Z,13.20
2022-11-27T16:52:15.738Z,11.25
2022-11-27T16:55:04.106Z,9.80
2022-11-27T16:57:32.116Z,11.68
2022-11-27T17:00:03.694Z,15.70
2022-11-27T17:02:32.114Z,11.55
2022-11-27T17:05:00.895Z,9.77
2022-11-27T17:07:29.180Z,11.50
2022-11-27T17:09:57.570Z,10.63
2022-11-27T17:12:26.201Z,6.55
2022-11-27T17:14:55.482Z,14.23
2022-11-27T17:17:25.783Z,17.20
2022-11-27T17:22:30.524Z,19.48
2022-11-27T17:25:00.160Z,16.13
2022-11-27T17:27:28.265Z,21.23
2022-11-27T17:29:56.476Z,10.15
2022-11-27T17:32:26.485Z,10.18
2022-11-27T17:34:54.714Z,12.40
2022-11-27T17:37:22.881Z,15.55
2022-11-27T17:39:50.994Z,14.68
2022-11-27T17:42:22.678Z,14.65
2022-11-27T17:44:51.554Z,15.23
2022-11-27T17:47:19.589Z,12.38
2022-11-27T17:49:49.046Z,19.45
2022-11-27T17:52:17.188Z,25.13
2022-11-27T17:54:45.227Z,23.90
2022-11-27T17:57:16.031Z,21.08
2022-11-27T17:59:44.313Z,15.55
2022-11-27T18:02:12.959Z,11.52
2022-11-27T18:04:41.084Z,8.02
2022-11-27T18:07:11.358Z,12.80
2022-11-27T18:09:40.660Z,22.63
2022-11-27T18:14:37.744Z,24.92
2022-11-27T18:17:07.056Z,28.67
2022-11-27T18:19:36.177Z,21.15
2022-11-27T18:22:04.460Z,25.23
2022-11-27T18:24:34.540Z,18.33
2022-11-27T18:29:40.094Z,19.40
2022-11-27T18:32:08.741Z,18.25
2022-11-27T18:34:36.905Z,22.17
2022-11-27T18:37:05.638Z,15.30
2022-11-27T18:39:35.537Z,19.10
2022-11-27T18:42:05.024Z,17.98
2022-11-27T18:47:01.846Z,13.15
2022-11-27T18:49:29.925Z,14.35
2022-11-27T18:51:58.065Z,17.30
2022-11-27T18:54:26.481Z,18.45
2022-11-27T18:56:55.911Z,13.73
2022-11-27T18:59:24.128Z,17.23
2022-11-27T19:01:53.270Z,14.65
2022-11-27T19:04:21.464Z,14.32
2022-11-27T19:06:49.511Z,20.02
2022-11-27T19:09:18.014Z,14.32
2022-11-27T19:11:46.137Z,11.68
2022-11-27T19:14:15.636Z,16.73
2022-11-27T19:22:07.788Z,13.00
2022-11-27T19:24:35.852Z,16.17
2022-11-27T19:27:04.363Z,18.92
2022-11-27T19:29:33.835Z,19.53
2022-11-27T19:34:29.983Z,26.10
2022-11-27T19:36:58.322Z,20.73
2022-11-27T19:39:27.805Z,22.17
2022-11-27T19:41:57.722Z,17.30
2022-11-27T19:44:26.250Z,23.50
2022-11-27T19:46:55.806Z,15.07
2022-11-27T19:51:51.963Z,16.88
2022-11-27T19:54:21.757Z,21.92
2022-11-27T19:56:49.886Z,17.45
2022-11-27T19:59:21.509Z,19.45
2022-11-27T20:01:52.490Z,19.77
2022-11-27T20:04:22.015Z,22.27
2022-11-27T20:06:52.390Z,20.67
2022-11-27T20:09:20.973Z,26.30
2022-11-27T20:11:49.079Z,26.00
2022-11-27T20:14:17.343Z,20.67
2022-11-27T20:16:45.504Z,18.50
2022-11-27T20:19:13.720Z,23.50
2022-11-27T20:21:43.414Z,20.95
2022-11-27T20:24:12.031Z,20.33
2022-11-27T20:26:42.831Z,18.10
2022-11-27T20:29:11.517Z,23.52
2022-11-27T20:31:41.512Z,20.55
2022-11-27T20:34:09.971Z,22.58
2022-11-27T20:36:42.418Z,22.33
2022-11-27T20:39:16.275Z,21.35
2022-11-27T20:41:47.690Z,25.35
2022-11-27T20:44:16.532Z,25.73
2022-11-27T20:46:44.697Z,22.50
2022-11-27T20:49:12.730Z,22.77
2022-11-27T20:51:42.249Z,27.65
2022-11-27T20:56:40.940Z,22.25
2022-11-27T20:59:09.456Z,21.70
2022-11-27T21:01:38.336Z,19.30
2022-11-27T21:04:10.198Z,21.48
2022-11-27T21:06:43.812Z,19.70
2022-11-27T21:09:14.741Z,19.85
2022-11-27T21:11:44.166Z,19.88
2022-11-27T21:16:45.042Z,26.48
2022-11-27T21:19:15.940Z,23.45
2022-11-27T21:21:44.064Z,23.17
2022-11-27T21:24:13.851Z,27.92
2022-11-27T21:26:42.372Z,28.45
2022-11-27T21:29:12.260Z,22.48
2022-11-27T21:31:46.098Z,28.67
2022-11-27T21:34:15.485Z,26.58
2022-11-27T21:36:43.638Z,26.63
2022-11-27T21:39:17.714Z,27.20
2022-11-27T21:41:45.851Z,30.02
2022-11-27T21:44:14.195Z,31.23
2022-11-27T21:46:43.707Z,27.17
2022-11-27T21:51:40.981Z,23.40
2022-11-27T21:54:11.176Z,25.45
2022-11-27T21:56:40.864Z,25.30
2022-11-27T21:59:11.539Z,32.20
2022-11-27T22:01:40.073Z,23.75
2022-11-27T22:04:08.195Z,36.53
2022-11-27T22:06:39.440Z,32.22
2022-11-27T22:09:14.705Z,32.05
2022-11-27T22:11:46.202Z,32.53
2022-11-27T22:14:15.960Z,33.35
2022-11-27T22:16:46.418Z,32.30
2022-11-27T22:19:16.116Z,33.80
2022-11-27T22:21:44.929Z,41.45
2022-11-27T22:24:18.367Z,37.83
2022-11-27T22:26:48.923Z,39.53
2022-11-27T22:29:17.124Z,35.50
2022-11-27T22:31:45.782Z,39.53
2022-11-27T22:34:13.859Z,35.38
2022-11-27T22:36:41.949Z,42.38
2022-11-27T22:39:10.429Z,38.17
2022-11-27T22:41:40.474Z,41.58
2022-11-27T22:44:11.033Z,37.65
2022-11-27T22:46:42.235Z,36.70
2022-11-27T22:49:12.533Z,47.40
2022-11-27T22:51:40.852Z,39.25
2022-11-27T22:54:12.157Z,38.30
2022-11-27T22:56:40.612Z,39.85
2022-11-27T22:59:31.703Z,42.03
2022-11-27T23:01:59.238Z,41.67
2022-11-27T23:04:27.472Z,36.83
2022-11-27T23:06:55.763Z,45.90
2022-11-27T23:09:24.165Z,43.75
2022-11-27T23:11:52.846Z,42.33
2022-11-27T23:14:22.531Z,45.58
2022-11-27T23:16:51.711Z,38.20
2022-11-27T23:19:21.152Z,47.17
2022-11-27T23:21:49.211Z,43.15
2022-11-27T23:24:17.622Z,42.15
2022-11-27T23:26:46.101Z,49.28
2022-11-27T23:29:15.006Z,38.70
2022-11-27T23:31:44.748Z,30.77
2022-11-27T23:34:15.827Z,40.30
2022-11-27T23:36:44.527Z,39.53
2022-11-27T23:39:14.420Z,38.30
2022-11-27T23:41:42.820Z,40.78
2022-11-27T23:44:11.018Z,38.75
2022-11-27T23:46:39.082Z,39.35
2022-11-27T23:49:08.969Z,38.60
2022-11-27T23:51:37.226Z,42.45
2022-11-27T23:54:09.364Z,42.28
2022-11-27T23:56:38.702Z,42.13
2022-11-27T23:59:06.771Z,40.13
